sensor_id;sensor_type;location;lat;lon;timestamp;temperature;humidity
19252;DHT22;9760;50.944;5.304;2022-08-20T00:00:49;20.10;99.90
19252;DHT22;9760;50.944;5.304;2022-08-20T00:03:34;20.10;99.90
19252;DHT22;9760;50.944;5.304;2022-08-20T00:06:05;20.20;99.90
19252;DHT22;9760;50.944;5.304;2022-08-20T00:08:31;20.10;99.90
19252;DHT22;9760;50.944;5.304;2022-08-20T00:10:58;20.10;99.90
19252;DHT22;9760;50.944;5.304;2022-08-20T00:13:29;20.10;99.90
19252;DHT22;9760;50.944;5.304;2022-08-20T00:15:55;20.10;99.90
19252;DHT22;9760;50.944;5.304;2022-08-20T00:18:22;20.10;99.90
19252;DHT22;9760;50.944;5.304;2022-08-20T00:20:51;20.00;99.90
19252;DHT22;9760;50.944;5.304;2022-08-20T00:23:18;20.00;99.90
19252;DHT22;9760;50.944;5.304;2022-08-20T00:25:45;19.90;99.90
19252;DHT22;9760;50.944;5.304;2022-08-20T00:28:11;19.90;99.90
19252;DHT22;9760;50.944;5.304;2022-08-20T00:30:38;19.90;99.90
19252;DHT22;9760;50.944;5.304;2022-08-20T00:33:07;19.90;99.90
19252;DHT22;9760;50.944;5.304;2022-08-20T00:35:35;19.80;99.90
19252;DHT22;9760;50.944;5.304;2022-08-20T00:38:01;19.80;99.90
19252;DHT22;9760;50.944;5.304;2022-08-20T00:40:32;19.80;99.90
19252;DHT22;9760;50.944;5.304;2022-08-20T00:43:00;19.80;99.90
19252;DHT22;9760;50.944;5.304;2022-08-20T00:45:28;19.70;99.90
19252;DHT22;9760;50.944;5.304;2022-08-20T00:47:54;19.70;99.90
19252;DHT22;9760;50.944;5.304;2022-08-20T00:50:29;19.70;99.90
19252;DHT22;9760;50.944;5.304;2022-08-20T00:52:57;19.60;99.90
19252;DHT22;9760;50.944;5.304;2022-08-20T00:55:23;19.70;99.90
19252;DHT22;9760;50.944;5.304;2022-08-20T00:57:52;19.70;99.90
19252;DHT22;9760;50.944;5.304;2022-08-20T01:00:38;19.70;99.90
19252;DHT22;9760;50.944;5.304;2022-08-20T01:03:06;19.60;99.90
19252;DHT22;9760;50.944;5.304;2022-08-20T01:05:35;19.60;99.90
19252;DHT22;9760;50.944;5.304;2022-08-20T01:08:01;19.60;99.90
19252;DHT22;9760;50.944;5.304;2022-08-20T01:10:32;19.60;99.90
19252;DHT22;9760;50.944;5.304;2022-08-20T01:12:59;19.60;99.90
19252;DHT22;9760;50.944;5.304;2022-08-20T01:15:29;19.50;99.90
19252;DHT22;9760;50.944;5.304;2022-08-20T01:17:57;19.60;99.90
19252;DHT22;9760;50.944;5.304;2022-08-20T01:20:48;19.60;99.90
19252;DHT22;9760;50.944;5.304;2022-08-20T01:26:03;19.50;99.90
19252;DHT22;9760;50.944;5.304;2022-08-20T01:28:55;19.50;99.90
19252;DHT22;9760;50.944;5.304;2022-08-20T01:31:24;19.50;99.90
19252;DHT22;9760;50.944;5.304;2022-08-20T01:33:53;19.40;99.90
19252;DHT22;9760;50.944;5.304;2022-08-20T01:36:29;19.30;99.90
19252;DHT22;9760;50.944;5.304;2022-08-20T01:39:00;19.30;99.90
19252;DHT22;9760;50.944;5.304;2022-08-20T01:44:21;19.20;99.90
19252;DHT22;9760;50.944;5.304;2022-08-20T01:46:48;19.20;99.90
19252;DHT22;9760;50.944;5.304;2022-08-20T01:49:18;19.20;99.90
19252;DHT22;9760;50.944;5.304;2022-08-20T01:51:45;19.20;99.90
19252;DHT22;9760;50.944;5.304;2022-08-20T01:54:12;19.10;99.90
19252;DHT22;9760;50.944;5.304;2022-08-20T01:56:53;19.10;99.90
19252;DHT22;9760;50.944;5.304;2022-08-20T01:59:19;19.10;99.90
19252;DHT22;9760;50.944;5.304;2022-08-20T02:01:44;19.10;99.90
19252;DHT22;9760;50.944;5.304;2022-08-20T02:04:10;19.10;99.90
19252;DHT22;9760;50.944;5.304;2022-08-20T02:06:41;19.00;99.90
19252;DHT22;9760;50.944;5.304;2022-08-20T02:09:08;19.00;99.90
19252;DHT22;9760;50.944;5.304;2022-08-20T02:11:35;19.00;99.90
19252;DHT22;9760;50.944;5.304;2022-08-20T02:14:03;19.00;99.90
19252;DHT22;9760;50.944;5.304;2022-08-20T02:16:33;19.00;99.90
19252;DHT22;9760;50.944;5.304;2022-08-20T02:19:06;18.90;99.90
19252;DHT22;9760;50.944;5.304;2022-08-20T02:21:35;18.80;99.90
19252;DHT22;9760;50.944;5.304;2022-08-20T02:24:02;18.80;99.90
19252;DHT22;9760;50.944;5.304;2022-08-20T02:26:28;18.80;99.90
19252;DHT22;9760;50.944;5.304;2022-08-20T02:28:54;18.80;99.90
19252;DHT22;9760;50.944;5.304;2022-08-20T02:31:21;18.80;99.90
19252;DHT22;9760;50.944;5.304;2022-08-20T02:33:47;18.90;99.90
19252;DHT22;9760;50.944;5.304;2022-08-20T02:36:14;18.90;99.90
19252;DHT22;9760;50.944;5.304;2022-08-20T02:38:43;18.80;99.90
19252;DHT22;9760;50.944;5.304;2022-08-20T02:41:09;18.80;99.90
19252;DHT22;9760;50.944;5.304;2022-08-20T02:43:35;18.90;99.90
19252;DHT22;9760;50.944;5.304;2022-08-20T02:46:03;18.90;99.90
19252;DHT22;9760;50.944;5.304;2022-08-20T02:48:29;18.80;99.90
19252;DHT22;9760;50.944;5.304;2022-08-20T02:50:58;18.80;99.90
19252;DHT22;9760;50.944;5.304;2022-08-20T02:53:27;18.70;99.90
19252;DHT22;9760;50.944;5.304;2022-08-20T02:55:54;18.60;99.90
19252;DHT22;9760;50.944;5.304;2022-08-20T02:58:20;18.50;99.90
19252;DHT22;9760;50.944;5.304;2022-08-20T03:00:46;18.50;99.90
19252;DHT22;9760;50.944;5.304;2022-08-20T03:03:13;18.50;99.90
19252;DHT22;9760;50.944;5.304;2022-08-20T03:05:42;18.40;99.90
19252;DHT22;9760;50.944;5.304;2022-08-20T03:08:10;18.40;99.90
19252;DHT22;9760;50.944;5.304;2022-08-20T03:10:37;18.30;99.90
19252;DHT22;9760;50.944;5.304;2022-08-20T03:13:04;18.20;99.90
19252;DHT22;9760;50.944;5.304;2022-08-20T03:15:32;18.20;99.90
19252;DHT22;9760;50.944;5.304;2022-08-20T03:17:58;18.00;99.90
19252;DHT22;9760;50.944;5.304;2022-08-20T03:20:26;18.00;99.90
19252;DHT22;9760;50.944;5.304;2022-08-20T03:22:52;17.90;99.90
19252;DHT22;9760;50.944;5.304;2022-08-20T03:25:18;17.90;99.90
19252;DHT22;9760;50.944;5.304;2022-08-20T03:27:44;17.80;99.90
19252;DHT22;9760;50.944;5.304;2022-08-20T03:30:13;17.80;99.90
19252;DHT22;9760;50.944;5.304;2022-08-20T03:32:40;17.70;99.90
19252;DHT22;9760;50.944;5.304;2022-08-20T03:35:08;17.70;99.90
19252;DHT22;9760;50.944;5.304;2022-08-20T03:37:35;17.70;99.90
19252;DHT22;9760;50.944;5.304;2022-08-20T03:40:04;17.80;99.90
19252;DHT22;9760;50.944;5.304;2022-08-20T03:42:30;17.80;99.90
19252;DHT22;9760;50.944;5.304;2022-08-20T03:44:56;17.80;99.90
19252;DHT22;9760;50.944;5.304;2022-08-20T03:47:21;17.80;99.90
19252;DHT22;9760;50.944;5.304;2022-08-20T03:49:49;17.90;99.90
19252;DHT22;9760;50.944;5.304;2022-08-20T03:52:15;17.90;99.90
19252;DHT22;9760;50.944;5.304;2022-08-20T03:54:42;17.90;99.90
19252;DHT22;9760;50.944;5.304;2022-08-20T03:57:14;17.80;99.90
19252;DHT22;9760;50.944;5.304;2022-08-20T03:59:41;17.80;99.90
19252;DHT22;9760;50.944;5.304;2022-08-20T04:02:07;17.80;99.90
19252;DHT22;9760;50.944;5.304;2022-08-20T04:04:33;17.80;99.90
19252;DHT22;9760;50.944;5.304;2022-08-20T04:06:59;17.80;99.90
19252;DHT22;9760;50.944;5.304;2022-08-20T04:09:24;17.70;99.90
19252;DHT22;9760;50.944;5.304;2022-08-20T04:11:50;17.70;99.90
19252;DHT22;9760;50.944;5.304;2022-08-20T04:14:17;17.70;99.90
19252;DHT22;9760;50.944;5.304;2022-08-20T04:16:43;17.80;99.90
19252;DHT22;9760;50.944;5.304;2022-08-20T04:19:09;17.60;99.90
19252;DHT22;9760;50.944;5.304;2022-08-20T04:21:35;17.70;99.90
19252;DHT22;9760;50.944;5.304;2022-08-20T04:24:03;17.80;99.90
19252;DHT22;9760;50.944;5.304;2022-08-20T04:26:29;17.80;99.90
19252;DHT22;9760;50.944;5.304;2022-08-20T04:28:55;17.80;99.90
19252;DHT22;9760;50.944;5.304;2022-08-20T04:31:22;17.70;99.90
19252;DHT22;9760;50.944;5.304;2022-08-20T04:33:57;17.70;99.90
19252;DHT22;9760;50.944;5.304;2022-08-20T04:36:23;17.70;99.90
19252;DHT22;9760;50.944;5.304;2022-08-20T04:38:49;17.80;99.90
19252;DHT22;9760;50.944;5.304;2022-08-20T04:41:14;17.70;99.90
19252;DHT22;9760;50.944;5.304;2022-08-20T04:43:40;17.70;99.90
19252;DHT22;9760;50.944;5.304;2022-08-20T04:46:07;17.60;99.90
19252;DHT22;9760;50.944;5.304;2022-08-20T04:48:36;17.60;99.90
19252;DHT22;9760;50.944;5.304;2022-08-20T04:51:04;17.60;99.90
19252;DHT22;9760;50.944;5.304;2022-08-20T04:53:29;17.60;99.90
19252;DHT22;9760;50.944;5.304;2022-08-20T04:55:58;17.50;99.90
19252;DHT22;9760;50.944;5.304;2022-08-20T04:58:36;17.40;99.90
19252;DHT22;9760;50.944;5.304;2022-08-20T05:01:08;17.40;99.90
19252;DHT22;9760;50.944;5.304;2022-08-20T05:03:36;17.30;99.90
19252;DHT22;9760;50.944;5.304;2022-08-20T05:06:04;17.30;99.90
19252;DHT22;9760;50.944;5.304;2022-08-20T05:08:31;17.30;99.90
19252;DHT22;9760;50.944;5.304;2022-08-20T05:10:58;17.30;99.90
19252;DHT22;9760;50.944;5.304;2022-08-20T05:13:24;17.40;99.90
19252;DHT22;9760;50.944;5.304;2022-08-20T05:15:50;17.30;99.90
19252;DHT22;9760;50.944;5.304;2022-08-20T05:18:19;17.30;99.90
19252;DHT22;9760;50.944;5.304;2022-08-20T05:20:46;17.30;99.90
19252;DHT22;9760;50.944;5.304;2022-08-20T05:23:14;17.20;99.90
19252;DHT22;9760;50.944;5.304;2022-08-20T05:25:41;17.20;99.90
19252;DHT22;9760;50.944;5.304;2022-08-20T05:28:10;17.30;99.90
19252;DHT22;9760;50.944;5.304;2022-08-20T05:30:39;17.30;99.90
19252;DHT22;9760;50.944;5.304;2022-08-20T05:33:06;17.40;99.90
19252;DHT22;9760;50.944;5.304;2022-08-20T05:35:35;17.40;99.90
19252;DHT22;9760;50.944;5.304;2022-08-20T05:38:07;17.30;99.90
19252;DHT22;9760;50.944;5.304;2022-08-20T05:40:34;17.30;99.90
19252;DHT22;9760;50.944;5.304;2022-08-20T05:42:59;17.30;99.90
19252;DHT22;9760;50.944;5.304;2022-08-20T05:45:25;17.30;99.90
19252;DHT22;9760;50.944;5.304;2022-08-20T05:47:51;17.30;99.90
19252;DHT22;9760;50.944;5.304;2022-08-20T05:50:17;17.30;99.90
19252;DHT22;9760;50.944;5.304;2022-08-20T05:52:43;17.30;99.90
19252;DHT22;9760;50.944;5.304;2022-08-20T05:55:11;17.20;99.90
19252;DHT22;9760;50.944;5.304;2022-08-20T05:57:38;17.30;99.90
19252;DHT22;9760;50.944;5.304;2022-08-20T06:00:07;17.40;99.90
19252;DHT22;9760;50.944;5.304;2022-08-20T06:02:33;17.40;99.90
19252;DHT22;9760;50.944;5.304;2022-08-20T06:05:17;17.40;99.90
19252;DHT22;9760;50.944;5.304;2022-08-20T06:07:44;17.40;99.90
19252;DHT22;9760;50.944;5.304;2022-08-20T06:10:10;17.40;99.90
19252;DHT22;9760;50.944;5.304;2022-08-20T06:12:36;17.50;99.90
19252;DHT22;9760;50.944;5.304;2022-08-20T06:15:06;17.50;99.90
19252;DHT22;9760;50.944;5.304;2022-08-20T06:17:32;17.50;99.90
19252;DHT22;9760;50.944;5.304;2022-08-20T06:20:02;17.40;99.90
19252;DHT22;9760;50.944;5.304;2022-08-20T06:22:29;17.40;99.90
19252;DHT22;9760;50.944;5.304;2022-08-20T06:24:55;17.40;99.90
19252;DHT22;9760;50.944;5.304;2022-08-20T06:27:20;17.50;99.90
19252;DHT22;9760;50.944;5.304;2022-08-20T06:29:46;17.30;99.90
19252;DHT22;9760;50.944;5.304;2022-08-20T06:32:12;17.10;99.90
19252;DHT22;9760;50.944;5.304;2022-08-20T06:34:38;17.20;99.90
19252;DHT22;9760;50.944;5.304;2022-08-20T06:37:16;17.20;99.90
19252;DHT22;9760;50.944;5.304;2022-08-20T06:39:43;17.30;99.90
19252;DHT22;9760;50.944;5.304;2022-08-20T06:42:09;17.20;99.90
19252;DHT22;9760;50.944;5.304;2022-08-20T06:44:35;17.30;99.90
19252;DHT22;9760;50.944;5.304;2022-08-20T06:47:03;17.50;99.90
19252;DHT22;9760;50.944;5.304;2022-08-20T06:49:30;17.40;99.90
19252;DHT22;9760;50.944;5.304;2022-08-20T06:51:56;17.40;99.90
19252;DHT22;9760;50.944;5.304;2022-08-20T06:54:21;17.40;99.90
19252;DHT22;9760;50.944;5.304;2022-08-20T06:56:47;17.40;99.90
19252;DHT22;9760;50.944;5.304;2022-08-20T06:59:13;17.30;99.90
19252;DHT22;9760;50.944;5.304;2022-08-20T07:01:39;17.30;99.90
19252;DHT22;9760;50.944;5.304;2022-08-20T07:04:05;17.40;99.90
19252;DHT22;9760;50.944;5.304;2022-08-20T07:06:33;17.50;99.90
19252;DHT22;9760;50.944;5.304;2022-08-20T07:08:59;17.40;99.90
19252;DHT22;9760;50.944;5.304;2022-08-20T07:11:25;17.50;99.90
19252;DHT22;9760;50.944;5.304;2022-08-20T07:13:50;17.50;99.90
19252;DHT22;9760;50.944;5.304;2022-08-20T07:16:17;17.50;99.90
19252;DHT22;9760;50.944;5.304;2022-08-20T07:18:43;17.50;99.90
19252;DHT22;9760;50.944;5.304;2022-08-20T07:21:08;17.60;99.90
19252;DHT22;9760;50.944;5.304;2022-08-20T07:23:36;17.50;99.90
19252;DHT22;9760;50.944;5.304;2022-08-20T07:26:02;17.60;99.90
19252;DHT22;9760;50.944;5.304;2022-08-20T07:28:28;17.70;99.90
19252;DHT22;9760;50.944;5.304;2022-08-20T07:30:56;17.60;99.90
19252;DHT22;9760;50.944;5.304;2022-08-20T07:33:41;17.70;99.90
19252;DHT22;9760;50.944;5.304;2022-08-20T07:36:07;17.70;99.90
19252;DHT22;9760;50.944;5.304;2022-08-20T07:38:34;17.90;99.90
19252;DHT22;9760;50.944;5.304;2022-08-20T07:41:02;17.80;99.90
19252;DHT22;9760;50.944;5.304;2022-08-20T07:43:29;17.80;99.90
19252;DHT22;9760;50.944;5.304;2022-08-20T07:45:56;17.80;99.90
19252;DHT22;9760;50.944;5.304;2022-08-20T07:48:25;17.80;99.90
19252;DHT22;9760;50.944;5.304;2022-08-20T07:50:54;18.00;99.90
19252;DHT22;9760;50.944;5.304;2022-08-20T07:53:20;17.90;99.90
19252;DHT22;9760;50.944;5.304;2022-08-20T07:55:45;18.00;99.90
19252;DHT22;9760;50.944;5.304;2022-08-20T07:58:13;18.20;99.90
19252;DHT22;9760;50.944;5.304;2022-08-20T08:00:40;18.10;99.90
19252;DHT22;9760;50.944;5.304;2022-08-20T08:03:06;18.10;99.90
19252;DHT22;9760;50.944;5.304;2022-08-20T08:05:34;18.10;99.90
19252;DHT22;9760;50.944;5.304;2022-08-20T08:08:01;18.20;99.90
19252;DHT22;9760;50.944;5.304;2022-08-20T08:10:27;18.30;99.90
19252;DHT22;9760;50.944;5.304;2022-08-20T08:12:58;18.40;99.90
19252;DHT22;9760;50.944;5.304;2022-08-20T08:15:29;18.40;99.90
19252;DHT22;9760;50.944;5.304;2022-08-20T08:18:01;18.30;99.90
19252;DHT22;9760;50.944;5.304;2022-08-20T08:20:27;18.30;99.90
19252;DHT22;9760;50.944;5.304;2022-08-20T08:22:53;18.40;99.90
19252;DHT22;9760;50.944;5.304;2022-08-20T08:25:19;18.60;99.90
19252;DHT22;9760;50.944;5.304;2022-08-20T08:27:45;18.70;99.90
19252;DHT22;9760;50.944;5.304;2022-08-20T08:30:14;18.70;99.90
19252;DHT22;9760;50.944;5.304;2022-08-20T08:32:41;18.70;99.90
19252;DHT22;9760;50.944;5.304;2022-08-20T08:35:27;18.70;99.90
19252;DHT22;9760;50.944;5.304;2022-08-20T08:37:55;18.70;99.90
19252;DHT22;9760;50.944;5.304;2022-08-20T08:40:21;18.80;99.90
19252;DHT22;9760;50.944;5.304;2022-08-20T08:42:50;18.90;99.90
19252;DHT22;9760;50.944;5.304;2022-08-20T08:45:26;19.00;99.90
19252;DHT22;9760;50.944;5.304;2022-08-20T08:47:54;18.90;99.90
19252;DHT22;9760;50.944;5.304;2022-08-20T08:50:30;18.90;99.90
19252;DHT22;9760;50.944;5.304;2022-08-20T08:52:59;19.00;99.90
19252;DHT22;9760;50.944;5.304;2022-08-20T08:55:28;18.90;99.90
19252;DHT22;9760;50.944;5.304;2022-08-20T08:57:56;18.90;99.90
19252;DHT22;9760;50.944;5.304;2022-08-20T09:00:25;19.10;99.90
19252;DHT22;9760;50.944;5.304;2022-08-20T09:02:58;19.40;99.90
19252;DHT22;9760;50.944;5.304;2022-08-20T09:05:30;19.50;99.90
19252;DHT22;9760;50.944;5.304;2022-08-20T09:08:01;19.50;99.90
19252;DHT22;9760;50.944;5.304;2022-08-20T09:10:27;19.70;99.90
19252;DHT22;9760;50.944;5.304;2022-08-20T09:12:53;19.50;99.90
19252;DHT22;9760;50.944;5.304;2022-08-20T09:15:19;19.60;99.90
19252;DHT22;9760;50.944;5.304;2022-08-20T09:17:45;19.60;99.90
19252;DHT22;9760;50.944;5.304;2022-08-20T09:20:11;19.70;99.90
19252;DHT22;9760;50.944;5.304;2022-08-20T09:22:37;19.90;99.90
19252;DHT22;9760;50.944;5.304;2022-08-20T09:25:03;20.00;99.90
19252;DHT22;9760;50.944;5.304;2022-08-20T09:27:29;20.00;99.90
19252;DHT22;9760;50.944;5.304;2022-08-20T09:29:55;20.20;99.90
19252;DHT22;9760;50.944;5.304;2022-08-20T09:32:22;20.10;99.90
19252;DHT22;9760;50.944;5.304;2022-08-20T09:34:50;20.10;99.90
19252;DHT22;9760;50.944;5.304;2022-08-20T09:37:20;20.00;99.90
19252;DHT22;9760;50.944;5.304;2022-08-20T09:39:46;20.20;99.90
19252;DHT22;9760;50.944;5.304;2022-08-20T09:44:43;20.40;99.90
19252;DHT22;9760;50.944;5.304;2022-08-20T09:47:09;20.40;99.90
19252;DHT22;9760;50.944;5.304;2022-08-20T09:49:35;20.30;99.90
19252;DHT22;9760;50.944;5.304;2022-08-20T09:52:06;20.60;99.90
19252;DHT22;9760;50.944;5.304;2022-08-20T09:54:33;20.50;99.90
19252;DHT22;9760;50.944;5.304;2022-08-20T09:57:02;20.50;99.90
19252;DHT22;9760;50.944;5.304;2022-08-20T09:59:29;20.60;99.90
19252;DHT22;9760;50.944;5.304;2022-08-20T10:01:55;20.50;99.90
19252;DHT22;9760;50.944;5.304;2022-08-20T10:04:21;20.50;99.90
19252;DHT22;9760;50.944;5.304;2022-08-20T10:06:47;20.70;99.90
19252;DHT22;9760;50.944;5.304;2022-08-20T10:09:13;20.70;99.90
19252;DHT22;9760;50.944;5.304;2022-08-20T10:11:38;20.90;99.90
19252;DHT22;9760;50.944;5.304;2022-08-20T10:14:04;21.00;99.90
19252;DHT22;9760;50.944;5.304;2022-08-20T10:16:30;21.30;99.90
19252;DHT22;9760;50.944;5.304;2022-08-20T10:18:56;21.60;99.90
19252;DHT22;9760;50.944;5.304;2022-08-20T10:21:22;22.00;99.90
19252;DHT22;9760;50.944;5.304;2022-08-20T10:23:48;22.10;99.90
19252;DHT22;9760;50.944;5.304;2022-08-20T10:26:14;22.40;99.90
19252;DHT22;9760;50.944;5.304;2022-08-20T10:28:41;22.80;99.90
19252;DHT22;9760;50.944;5.304;2022-08-20T10:31:08;22.80;99.90
19252;DHT22;9760;50.944;5.304;2022-08-20T10:33:35;23.10;99.90
19252;DHT22;9760;50.944;5.304;2022-08-20T10:36:11;23.30;99.90
19252;DHT22;9760;50.944;5.304;2022-08-20T10:38:37;23.00;99.90
19252;DHT22;9760;50.944;5.304;2022-08-20T10:41:03;23.10;99.90
19252;DHT22;9760;50.944;5.304;2022-08-20T10:43:29;23.80;99.90
19252;DHT22;9760;50.944;5.304;2022-08-20T10:45:55;24.50;99.90
19252;DHT22;9760;50.944;5.304;2022-08-20T10:48:21;24.60;99.90
19252;DHT22;9760;50.944;5.304;2022-08-20T10:50:47;24.70;99.90
19252;DHT22;9760;50.944;5.304;2022-08-20T10:53:12;25.10;99.90
19252;DHT22;9760;50.944;5.304;2022-08-20T10:55:38;25.40;99.90
19252;DHT22;9760;50.944;5.304;2022-08-20T10:58:05;25.70;99.90
19252;DHT22;9760;50.944;5.304;2022-08-20T11:00:31;25.90;99.90
19252;DHT22;9760;50.944;5.304;2022-08-20T11:02:56;26.10;99.90
19252;DHT22;9760;50.944;5.304;2022-08-20T11:05:22;26.00;99.90
19252;DHT22;9760;50.944;5.304;2022-08-20T11:07:48;25.90;99.90
19252;DHT22;9760;50.944;5.304;2022-08-20T11:10:13;26.20;99.90
19252;DHT22;9760;50.944;5.304;2022-08-20T11:12:39;26.00;99.90
19252;DHT22;9760;50.944;5.304;2022-08-20T11:15:05;26.20;99.90
19252;DHT22;9760;50.944;5.304;2022-08-20T11:17:34;25.60;99.90
19252;DHT22;9760;50.944;5.304;2022-08-20T11:20:00;25.70;99.90
19252;DHT22;9760;50.944;5.304;2022-08-20T11:22:26;26.40;99.90
19252;DHT22;9760;50.944;5.304;2022-08-20T11:24:53;26.80;99.90
19252;DHT22;9760;50.944;5.304;2022-08-20T11:27:44;27.20;99.90
19252;DHT22;9760;50.944;5.304;2022-08-20T11:30:15;27.30;99.90
19252;DHT22;9760;50.944;5.304;2022-08-20T11:32:41;27.60;99.90
19252;DHT22;9760;50.944;5.304;2022-08-20T11:35:07;27.60;99.90
19252;DHT22;9760;50.944;5.304;2022-08-20T11:37:33;27.70;99.90
19252;DHT22;9760;50.944;5.304;2022-08-20T11:39:59;27.20;99.90
19252;DHT22;9760;50.944;5.304;2022-08-20T11:42:24;26.50;99.90
19252;DHT22;9760;50.944;5.304;2022-08-20T11:44:50;25.50;99.90
19252;DHT22;9760;50.944;5.304;2022-08-20T11:47:24;25.60;99.90
19252;DHT22;9760;50.944;5.304;2022-08-20T11:52:30;24.40;99.90
19252;DHT22;9760;50.944;5.304;2022-08-20T11:54:57;24.30;99.90
19252;DHT22;9760;50.944;5.304;2022-08-20T11:57:27;24.60;99.90
19252;DHT22;9760;50.944;5.304;2022-08-20T11:59:55;24.80;99.90
19252;DHT22;9760;50.944;5.304;2022-08-20T12:02:21;24.60;99.90
19252;DHT22;9760;50.944;5.304;2022-08-20T12:04:47;24.40;99.90
19252;DHT22;9760;50.944;5.304;2022-08-20T12:07:15;24.40;99.90
19252;DHT22;9760;50.944;5.304;2022-08-20T12:09:42;24.20;99.90
19252;DHT22;9760;50.944;5.304;2022-08-20T12:12:08;24.10;99.90
19252;DHT22;9760;50.944;5.304;2022-08-20T12:14:34;24.10;99.90
19252;DHT22;9760;50.944;5.304;2022-08-20T12:17:14;24.20;99.90
19252;DHT22;9760;50.944;5.304;2022-08-20T12:19:41;24.50;99.90
19252;DHT22;9760;50.944;5.304;2022-08-20T12:22:08;24.60;99.90
19252;DHT22;9760;50.944;5.304;2022-08-20T12:24:34;24.90;99.90
19252;DHT22;9760;50.944;5.304;2022-08-20T12:27:11;25.30;99.90
19252;DHT22;9760;50.944;5.304;2022-08-20T12:29:38;25.60;99.90
19252;DHT22;9760;50.944;5.304;2022-08-20T12:32:05;25.50;99.90
19252;DHT22;9760;50.944;5.304;2022-08-20T12:34:33;25.40;99.90
19252;DHT22;9760;50.944;5.304;2022-08-20T12:37:04;25.40;99.90
19252;DHT22;9760;50.944;5.304;2022-08-20T12:39:31;25.50;99.90
19252;DHT22;9760;50.944;5.304;2022-08-20T12:41:59;25.20;99.90
19252;DHT22;9760;50.944;5.304;2022-08-20T12:44:28;24.90;99.90
19252;DHT22;9760;50.944;5.304;2022-08-20T12:47:21;24.70;99.90
19252;DHT22;9760;50.944;5.304;2022-08-20T12:49:50;24.60;99.90
19252;DHT22;9760;50.944;5.304;2022-08-20T12:52:17;24.40;99.90
19252;DHT22;9760;50.944;5.304;2022-08-20T12:54:43;24.20;99.90
19252;DHT22;9760;50.944;5.304;2022-08-20T12:57:25;24.10;99.90
19252;DHT22;9760;50.944;5.304;2022-08-20T12:59:56;24.20;99.90
19252;DHT22;9760;50.944;5.304;2022-08-20T13:02:22;24.40;99.90
19252;DHT22;9760;50.944;5.304;2022-08-20T13:04:48;24.40;99.90
19252;DHT22;9760;50.944;5.304;2022-08-20T13:07:13;24.40;99.90
19252;DHT22;9760;50.944;5.304;2022-08-20T13:09:40;24.40;99.90
19252;DHT22;9760;50.944;5.304;2022-08-20T13:12:06;24.40;99.90
19252;DHT22;9760;50.944;5.304;2022-08-20T13:14:32;24.50;99.90
19252;DHT22;9760;50.944;5.304;2022-08-20T13:16:59;24.80;99.90
19252;DHT22;9760;50.944;5.304;2022-08-20T13:19:26;24.80;99.90
19252;DHT22;9760;50.944;5.304;2022-08-20T13:21:53;24.90;99.90
19252;DHT22;9760;50.944;5.304;2022-08-20T13:24:19;25.00;99.90
19252;DHT22;9760;50.944;5.304;2022-08-20T13:26:45;25.30;99.90
19252;DHT22;9760;50.944;5.304;2022-08-20T13:29:11;25.30;99.90
19252;DHT22;9760;50.944;5.304;2022-08-20T13:31:38;25.10;99.90
19252;DHT22;9760;50.944;5.304;2022-08-20T13:34:03;25.20;99.90
19252;DHT22;9760;50.944;5.304;2022-08-20T13:36:29;25.40;99.90
19252;DHT22;9760;50.944;5.304;2022-08-20T13:38:55;25.40;99.90
19252;DHT22;9760;50.944;5.304;2022-08-20T13:41:20;25.00;99.90
19252;DHT22;9760;50.944;5.304;2022-08-20T13:43:46;25.00;99.90
19252;DHT22;9760;50.944;5.304;2022-08-20T13:46:11;25.00;99.90
19252;DHT22;9760;50.944;5.304;2022-08-20T13:48:37;24.90;99.90
19252;DHT22;9760;50.944;5.304;2022-08-20T13:51:03;24.90;99.90
19252;DHT22;9760;50.944;5.304;2022-08-20T13:53:28;25.20;99.90
19252;DHT22;9760;50.944;5.304;2022-08-20T13:55:54;25.50;99.90
19252;DHT22;9760;50.944;5.304;2022-08-20T13:58:20;25.60;99.90
19252;DHT22;9760;50.944;5.304;2022-08-20T14:00:48;25.50;99.90
19252;DHT22;9760;50.944;5.304;2022-08-20T14:03:15;25.40;99.90
19252;DHT22;9760;50.944;5.304;2022-08-20T14:05:41;25.50;99.90
19252;DHT22;9760;50.944;5.304;2022-08-20T14:08:15;25.60;99.90
19252;DHT22;9760;50.944;5.304;2022-08-20T14:10:42;25.60;99.90
19252;DHT22;9760;50.944;5.304;2022-08-20T14:13:08;25.50;99.90
19252;DHT22;9760;50.944;5.304;2022-08-20T14:15:38;25.80;99.90
19252;DHT22;9760;50.944;5.304;2022-08-20T14:18:04;25.80;99.90
19252;DHT22;9760;50.944;5.304;2022-08-20T14:20:32;25.90;99.90
19252;DHT22;9760;50.944;5.304;2022-08-20T14:22:59;25.80;99.90
19252;DHT22;9760;50.944;5.304;2022-08-20T14:25:25;25.60;99.90
19252;DHT22;9760;50.944;5.304;2022-08-20T14:27:52;25.50;99.90
19252;DHT22;9760;50.944;5.304;2022-08-20T14:30:23;25.70;99.90
19252;DHT22;9760;50.944;5.304;2022-08-20T14:32:49;25.80;99.90
19252;DHT22;9760;50.944;5.304;2022-08-20T14:35:14;25.90;99.90
19252;DHT22;9760;50.944;5.304;2022-08-20T14:37:43;25.90;99.90
19252;DHT22;9760;50.944;5.304;2022-08-20T14:40:13;26.10;99.90
19252;DHT22;9760;50.944;5.304;2022-08-20T14:42:41;26.30;99.90
19252;DHT22;9760;50.944;5.304;2022-08-20T14:45:08;26.10;99.90
19252;DHT22;9760;50.944;5.304;2022-08-20T14:47:36;26.00;99.90
19252;DHT22;9760;50.944;5.304;2022-08-20T14:50:07;26.10;99.90
19252;DHT22;9760;50.944;5.304;2022-08-20T14:52:33;25.80;99.90
19252;DHT22;9760;50.944;5.304;2022-08-20T14:55:02;25.80;99.90
19252;DHT22;9760;50.944;5.304;2022-08-20T14:57:29;25.90;99.90
19252;DHT22;9760;50.944;5.304;2022-08-20T14:59:55;26.00;99.90
19252;DHT22;9760;50.944;5.304;2022-08-20T15:02:20;26.20;99.90
19252;DHT22;9760;50.944;5.304;2022-08-20T15:04:46;26.10;99.90
19252;DHT22;9760;50.944;5.304;2022-08-20T15:07:22;26.00;99.90
19252;DHT22;9760;50.944;5.304;2022-08-20T15:09:48;26.00;99.90
19252;DHT22;9760;50.944;5.304;2022-08-20T15:12:13;26.00;99.90
19252;DHT22;9760;50.944;5.304;2022-08-20T15:14:39;26.00;99.90
19252;DHT22;9760;50.944;5.304;2022-08-20T15:17:04;25.90;99.90
19252;DHT22;9760;50.944;5.304;2022-08-20T15:19:30;26.00;99.90
19252;DHT22;9760;50.944;5.304;2022-08-20T15:21:56;25.80;99.90
19252;DHT22;9760;50.944;5.304;2022-08-20T15:24:21;25.60;99.90
19252;DHT22;9760;50.944;5.304;2022-08-20T15:26:47;25.40;99.90
19252;DHT22;9760;50.944;5.304;2022-08-20T15:29:13;25.40;99.90
19252;DHT22;9760;50.944;5.304;2022-08-20T15:31:39;25.40;99.90
19252;DHT22;9760;50.944;5.304;2022-08-20T15:34:05;25.60;99.90
19252;DHT22;9760;50.944;5.304;2022-08-20T15:36:31;25.70;99.90
19252;DHT22;9760;50.944;5.304;2022-08-20T15:38:56;25.60;99.90
19252;DHT22;9760;50.944;5.304;2022-08-20T15:41:22;25.80;99.90
19252;DHT22;9760;50.944;5.304;2022-08-20T15:43:48;26.10;99.90
19252;DHT22;9760;50.944;5.304;2022-08-20T15:46:13;27.20;99.90
19252;DHT22;9760;50.944;5.304;2022-08-20T15:48:45;28.40;99.90
19252;DHT22;9760;50.944;5.304;2022-08-20T15:51:21;27.40;99.90
19252;DHT22;9760;50.944;5.304;2022-08-20T15:56:47;28.90;99.90
19252;DHT22;9760;50.944;5.304;2022-08-20T16:02:36;29.60;99.90
19252;DHT22;9760;50.944;5.304;2022-08-20T16:05:27;30.70;99.80